KALN/ALN METAR and TAF weather

Enter ICAO airport designator
Station Type Date Time Source
KALN METAR 2021/10/22 18:50 UTC NOAA

KALN 221850Z 28007KT 10SM BKN034 14/05 A3008


Station Type Date Time Source
KALN Decoded METAR 2021/10/22 18:50 UTC NOAA

Alton/St. Louis, St. Louis Regional Airport, IL, United States (KALN) 38-54N 090-03W
Oct 22, 2021 - 02:50 PM EDT / 2021.10.22 1850 UTC
Wind: from the W (280 degrees) at 8 MPH (7 KT):0
Visibility: 10 mile(s):0
Sky conditions: mostly cloudy
Temperature: 57 F (14 C)
Dew Point: 41 F (5 C)
Relative Humidity: 54%
Pressure (altimeter): 30.08 in. Hg (1018 hPa)
ob: KALN 221850Z 28007KT 10SM BKN034 14/05 A3008
cycle: 19

Station Type Date Time Source
KALN TAF UTC NOAA

Error!

Example: see airport list